Time;durP1;ratioP1;P1;durP2;ratioP2;P2;SDS_P1;SDS_P2;PMS_P1;PMS_P2;Temp;Humidity;BMP_temperature;BMP_pressure;BME280_temperature;BME280_humidity;BME280_pressure;Samples;Min_cycle;Max_cycle;Signal;HPM_P1;HPM_P2
2023/12/03 00:00:18;;;;;;;29.02;16.92;;;11.00;99.10;;;;;;5012754;28;20038;-73
2023/12/03 00:02:45;;;;;;;30.67;19.02;;;11.20;98.60;;;;;;5009896;28;20113;-78
2023/12/03 00:05:14;;;;;;;85.80;46.63;;;11.30;98.50;;;;;;5013107;28;20042;-79
2023/12/03 00:07:43;;;;;;;69.53;39.70;;;11.30;98.90;;;;;;5006930;28;20481;-80
2023/12/03 00:10:11;;;;;;;31.52;19.75;;;11.40;99.00;;;;;;5010306;28;20037;-77
2023/12/03 00:12:40;;;;;;;25.83;16.88;;;11.20;98.60;;;;;;5012320;28;20080;-76
2023/12/03 00:15:08;;;;;;;29.75;18.10;;;11.20;98.90;;;;;;5010787;28;20489;-77
2023/12/03 00:17:35;;;;;;;23.83;15.82;;;11.30;98.50;;;;;;5012493;28;20038;-77
2023/12/03 00:20:05;;;;;;;34.28;16.50;;;11.20;98.40;;;;;;5014003;28;20425;-77
2023/12/03 00:22:32;;;;;;;25.38;16.65;;;11.30;98.20;;;;;;5011769;28;20052;-77
2023/12/03 00:25:00;;;;;;;29.48;17.17;;;11.30;98.30;;;;;;5013813;28;20494;-79
2023/12/03 00:27:27;;;;;;;25.10;17.17;;;11.30;98.10;;;;;;5012609;28;20116;-77
2023/12/03 00:29:54;;;;;;;28.35;16.30;;;11.30;98.20;;;;;;5012500;28;20034;-77
2023/12/03 00:32:21;;;;;;;20.15;13.02;;;11.30;98.10;;;;;;5009450;28;20030;-78
2023/12/03 00:34:49;;;;;;;16.65;10.07;;;11.40;98.40;;;;;;5011204;28;20041;-76
2023/12/03 00:37:17;;;;;;;15.27;9.90;;;11.70;98.00;;;;;;5012227;28;20044;-79
2023/12/03 00:39:44;;;;;;;25.48;14.48;;;12.00;97.50;;;;;;5009301;28;20434;-78
2023/12/03 00:42:11;;;;;;;25.20;13.48;;;11.80;97.40;;;;;;5011951;28;20057;-73
2023/12/03 00:44:39;;;;;;;26.75;15.65;;;11.60;97.90;;;;;;5012312;28;20096;-81
2023/12/03 00:47:06;;;;;;;51.05;27.55;;;11.20;98.60;;;;;;5012723;28;20045;-80
2023/12/03 00:49:33;;;;;;;31.98;20.95;;;11.20;99.40;;;;;;5012802;28;20377;-81
2023/12/03 00:52:01;;;;;;;28.25;16.35;;;11.30;98.90;;;;;;5010639;28;20046;-75
2023/12/03 00:54:28;;;;;;;21.27;11.55;;;11.40;98.70;;;;;;5006991;28;20041;-78
2023/12/03 00:56:56;;;;;;;18.60;11.27;;;11.60;98.40;;;;;;4974729;28;20073;-77
2023/12/03 00:59:23;;;;;;;15.65;9.30;;;11.60;98.20;;;;;;5010337;28;20412;-75
2023/12/03 01:01:50;;;;;;;13.43;8.32;;;12.00;97.90;;;;;;4991322;28;20447;-77
2023/12/03 01:04:18;;;;;;;19.00;10.60;;;12.40;97.00;;;;;;5011442;28;20046;-79
2023/12/03 01:06:46;;;;;;;17.08;8.68;;;12.00;97.40;;;;;;5008996;28;20363;-76
2023/12/03 01:09:15;;;;;;;15.70;7.60;;;12.10;97.60;;;;;;5007747;28;20116;-77
2023/12/03 01:11:43;;;;;;;18.00;9.18;;;12.60;97.20;;;;;;4987346;28;20358;-77
2023/12/03 01:14:10;;;;;;;22.02;10.00;;;12.70;96.80;;;;;;5010073;28;20042;-76
2023/12/03 01:16:37;;;;;;;22.17;12.70;;;12.60;96.60;;;;;;5010820;28;20494;-74
2023/12/03 01:19:05;;;;;;;23.90;14.05;;;11.70;97.90;;;;;;5007583;28;20104;-78
2023/12/03 01:21:32;;;;;;;23.13;12.50;;;11.60;98.20;;;;;;5007863;28;20050;-74
2023/12/03 01:23:59;;;;;;;20.00;8.25;;;11.50;98.60;;;;;;5007144;28;20034;-79
2023/12/03 01:26:27;;;;;;;16.10;11.98;;;11.90;98.50;;;;;;5005277;28;20038;-78
2023/12/03 01:28:54;;;;;;;22.13;13.23;;;11.80;97.80;;;;;;5008994;28;20125;-73
2023/12/03 01:31:21;;;;;;;28.23;17.98;;;11.50;98.30;;;;;;5006892;28;20385;-73
2023/12/03 01:33:49;;;;;;;26.40;14.18;;;11.40;98.80;;;;;;5007481;28;20069;-79
2023/12/03 01:36:16;;;;;;;25.70;16.27;;;11.30;99.00;;;;;;5007588;28;20048;-73
2023/12/03 01:38:44;;;;;;;23.88;13.02;;;11.30;99.00;;;;;;5007882;28;20037;-78
2023/12/03 01:41:11;;;;;;;28.52;13.77;;;11.20;99.30;;;;;;5006640;28;20108;-77
2023/12/03 01:43:50;;;;;;;26.17;13.45;;;10.90;99.40;;;;;;5008086;28;20069;-77
2023/12/03 01:46:18;;;;;;;18.45;9.52;;;10.80;99.80;;;;;;5007474;28;20078;-77
2023/12/03 01:48:47;;;;;;;21.10;8.55;;;11.20;99.90;;;;;;5010615;28;20038;-77
2023/12/03 01:51:15;;;;;;;26.25;7.53;;;11.70;99.30;;;;;;5006567;28;20050;-76
2023/12/03 01:53:43;;;;;;;15.63;9.15;;;12.00;98.60;;;;;;5005870;28;20116;-78
2023/12/03 01:56:12;;;;;;;17.83;11.38;;;12.00;98.40;;;;;;5004551;28;20113;-75
2023/12/03 01:58:40;;;;;;;17.15;11.13;;;11.90;98.10;;;;;;5007043;28;20026;-74
2023/12/03 02:01:08;;;;;;;21.58;12.25;;;11.80;98.70;;;;;;5007309;28;20048;-79
2023/12/03 02:03:36;;;;;;;22.20;12.82;;;11.70;98.60;;;;;;4990551;28;20041;-76
2023/12/03 02:06:04;;;;;;;25.45;16.63;;;11.60;98.60;;;;;;5009684;28;20041;-73
2023/12/03 02:08:32;;;;;;;27.98;15.32;;;11.40;98.60;;;;;;5007016;28;20145;-78
2023/12/03 02:11:01;;;;;;;29.52;15.57;;;11.30;98.80;;;;;;5005199;28;20038;-76
2023/12/03 02:13:36;;;;;;;24.35;13.77;;;11.20;99.10;;;;;;5008368;28;20037;-78
2023/12/03 02:16:05;;;;;;;24.33;12.73;;;11.30;99.30;;;;;;5006231;28;20547;-76
2023/12/03 02:18:33;;;;;;;19.27;12.55;;;11.40;99.10;;;;;;5005711;28;20038;-75
2023/12/03 02:21:00;;;;;;;25.60;14.40;;;11.30;99.20;;;;;;5004470;28;20120;-77
2023/12/03 02:23:29;;;;;;;27.65;14.43;;;11.30;99.00;;;;;;5005847;28;20366;-75
2023/12/03 02:25:57;;;;;;;24.23;14.77;;;11.10;99.20;;;;;;5002232;28;20482;-75
2023/12/03 02:28:24;;;;;;;24.70;14.90;;;11.10;99.60;;;;;;5009180;28;20057;-78
2023/12/03 02:30:51;;;;;;;26.50;14.15;;;11.00;99.50;;;;;;5005214;28;20069;-74
2023/12/03 02:33:19;;;;;;;21.98;14.35;;;10.60;99.90;;;;;;5009934;28;20037;-75
2023/12/03 02:35:47;;;;;;;23.00;13.25;;;10.80;99.90;;;;;;5008393;28;20113;-74
2023/12/03 02:38:15;;;;;;;24.65;14.65;;;10.90;99.90;;;;;;5005795;28;20076;-74
2023/12/03 02:40:43;;;;;;;28.90;13.93;;;10.70;99.90;;;;;;5002450;28;20057;-74
2023/12/03 02:43:11;;;;;;;29.73;13.98;;;10.90;99.90;;;;;;5008955;28;20080;-75
2023/12/03 02:45:38;;;;;;;25.40;15.52;;;10.70;99.90;;;;;;5004641;28;20052;-74
2023/12/03 02:48:06;;;;;;;24.30;13.00;;;10.50;99.90;;;;;;4990965;28;20039;-76
2023/12/03 02:50:33;;;;;;;20.52;12.27;;;10.70;99.90;;;;;;5007997;28;20038;-73
2023/12/03 02:53:01;;;;;;;23.27;13.00;;;10.80;99.90;;;;;;5005661;28;20034;-74
2023/12/03 02:55:29;;;;;;;25.27;11.60;;;11.10;99.90;;;;;;5006579;28;20412;-73
2023/12/03 02:57:56;;;;;;;24.85;13.48;;;11.40;99.90;;;;;;5003508;28;20114;-76
2023/12/03 03:00:24;;;;;;;20.65;12.48;;;11.60;99.60;;;;;;5008297;28;20058;-78
2023/12/03 03:02:53;;;;;;;21.90;13.10;;;11.50;99.80;;;;;;5005674;28;20113;-76
2023/12/03 03:05:20;;;;;;;22.92;14.65;;;11.60;99.70;;;;;;5005941;28;20038;-76
2023/12/03 03:07:47;;;;;;;21.98;14.25;;;11.40;99.90;;;;;;5005431;28;20046;-77
2023/12/03 03:10:15;;;;;;;24.75;14.57;;;11.20;99.90;;;;;;5006218;28;20358;-76
2023/12/03 03:12:42;;;;;;;20.20;14.00;;;10.90;99.90;;;;;;4988607;28;20050;-77
2023/12/03 03:15:09;;;;;;;26.17;13.07;;;10.80;99.90;;;;;;5006968;28;20374;-76
2023/12/03 03:17:37;;;;;;;18.90;9.50;;;10.80;99.90;;;;;;5005367;28;20041;-76
2023/12/03 03:20:05;;;;;;;15.25;8.10;;;11.10;99.90;;;;;;5004189;28;20038;-75
2023/12/03 03:22:33;;;;;;;20.50;9.32;;;11.40;99.90;;;;;;5006701;28;20037;-75
2023/12/03 03:25:00;;;;;;;20.73;10.88;;;11.70;99.90;;;;;;5009440;28;20440;-76
2023/12/03 03:27:27;;;;;;;19.17;9.90;;;11.50;99.90;;;;;;5001327;28;20470;-76
2023/12/03 03:29:55;;;;;;;18.45;8.77;;;11.30;99.90;;;;;;5009906;28;20038;-77
2023/12/03 03:32:22;;;;;;;19.77;9.25;;;11.50;99.90;;;;;;5003748;28;20035;-75
2023/12/03 03:34:49;;;;;;;19.05;9.93;;;11.60;99.90;;;;;;5005683;28;20077;-77
2023/12/03 03:37:17;;;;;;;18.55;9.40;;;11.30;99.90;;;;;;4991011;28;20065;-76
2023/12/03 03:39:44;;;;;;;22.60;9.60;;;11.20;99.90;;;;;;5006721;28;20114;-78
2023/12/03 03:42:11;;;;;;;17.98;9.60;;;11.30;99.90;;;;;;5001359;28;20046;-77
2023/12/03 03:44:39;;;;;;;22.50;11.07;;;11.20;99.90;;;;;;5008011;28;20046;-74
2023/12/03 03:47:06;;;;;;;18.73;9.82;;;11.00;99.90;;;;;;5003435;28;20069;-76
2023/12/03 03:49:33;;;;;;;18.10;10.35;;;10.90;99.90;;;;;;5009314;28;20088;-73
2023/12/03 03:52:02;;;;;;;24.20;9.10;;;10.90;99.90;;;;;;5005018;28;20045;-73
2023/12/03 03:54:29;;;;;;;21.67;10.80;;;11.00;99.90;;;;;;5006207;28;20064;-74
2023/12/03 03:56:56;;;;;;;21.05;9.60;;;11.00;99.90;;;;;;5005865;28;20474;-74
2023/12/03 03:59:24;;;;;;;19.77;9.95;;;11.10;99.90;;;;;;5004327;28;20032;-77
2023/12/03 04:01:51;;;;;;;16.10;10.23;;;11.00;99.90;;;;;;5011519;28;20061;-76
2023/12/03 04:04:19;;;;;;;22.83;10.70;;;10.70;99.90;;;;;;4995952;28;20037;-77
2023/12/03 04:06:46;;;;;;;25.80;10.50;;;10.60;99.90;;;;;;5006633;28;20474;-76
2023/12/03 04:09:14;;;;;;;18.65;9.88;;;10.80;99.90;;;;;;4990702;28;20038;-76
2023/12/03 04:11:42;;;;;;;14.48;10.40;;;10.90;99.90;;;;;;4990340;28;20057;-76
2023/12/03 04:14:19;;;;;;;23.98;10.23;;;11.00;99.90;;;;;;5008292;28;20113;-76
2023/12/03 04:16:46;;;;;;;23.90;10.75;;;11.00;99.90;;;;;;5007974;28;20060;-77
2023/12/03 04:19:13;;;;;;;19.10;10.13;;;11.10;99.90;;;;;;5006514;28;20043;-76
2023/12/03 04:21:41;;;;;;;18.83;10.18;;;11.20;99.90;;;;;;5009946;28;20040;-76
2023/12/03 04:24:08;;;;;;;16.98;9.90;;;11.10;99.90;;;;;;5008352;28;20177;-74
2023/12/03 04:26:36;;;;;;;22.27;10.38;;;11.10;99.90;;;;;;5007858;28;20049;-77
2023/12/03 04:29:04;;;;;;;17.60;9.30;;;11.00;99.90;;;;;;5010936;28;20117;-77
2023/12/03 04:31:31;;;;;;;15.57;9.77;;;11.10;99.90;;;;;;5009924;28;20040;-77
2023/12/03 04:33:58;;;;;;;17.30;8.57;;;11.10;99.90;;;;;;5005599;28;20049;-76
2023/12/03 04:36:29;;;;;;;16.33;8.32;;;10.80;99.90;;;;;;5011332;28;20042;-76
2023/12/03 04:38:56;;;;;;;13.73;9.40;;;11.10;99.90;;;;;;5008392;28;20378;-78
2023/12/03 04:41:24;;;;;;;14.05;8.80;;;11.30;99.90;;;;;;5008856;28;20406;-76
2023/12/03 04:43:51;;;;;;;14.90;9.68;;;11.20;99.90;;;;;;5007625;28;20444;-75
2023/12/03 04:46:18;;;;;;;19.27;9.77;;;11.00;99.90;;;;;;5011336;28;20450;-78
2023/12/03 04:48:46;;;;;;;15.18;9.15;;;10.90;99.90;;;;;;5005480;28;20113;-75
2023/12/03 04:51:13;;;;;;;18.27;9.50;;;11.00;99.90;;;;;;5011272;28;20046;-74
2023/12/03 04:53:41;;;;;;;23.20;9.93;;;11.00;99.90;;;;;;5007789;28;20671;-79
2023/12/03 04:56:09;;;;;;;16.85;9.98;;;11.00;99.90;;;;;;5006032;28;20049;-74
2023/12/03 04:58:36;;;;;;;21.95;9.80;;;10.80;99.90;;;;;;5008851;28;20071;-75
2023/12/03 05:01:04;;;;;;;17.42;9.13;;;10.80;99.90;;;;;;5015692;28;20436;-77
2023/12/03 05:03:31;;;;;;;16.67;9.85;;;10.90;99.90;;;;;;4994866;28;20045;-75
2023/12/03 05:05:59;;;;;;;15.88;10.27;;;11.00;99.90;;;;;;5007517;28;20389;-75
2023/12/03 05:08:26;;;;;;;17.20;9.85;;;11.00;99.90;;;;;;5006107;28;20046;-75
2023/12/03 05:10:54;;;;;;;22.08;9.88;;;11.00;99.90;;;;;;5008403;28;20065;-76
2023/12/03 05:13:21;;;;;;;18.15;9.88;;;11.00;99.90;;;;;;4988448;28;20046;-76
2023/12/03 05:15:48;;;;;;;17.85;9.15;;;11.00;99.90;;;;;;5010280;28;20065;-77
2023/12/03 05:18:16;;;;;;;20.35;9.25;;;11.20;99.90;;;;;;5005078;28;20025;-76
2023/12/03 05:20:43;;;;;;;24.88;10.35;;;11.20;99.90;;;;;;5007662;28;20125;-78
2023/12/03 05:23:12;;;;;;;16.40;8.57;;;10.60;99.90;;;;;;5007898;28;20083;-79
2023/12/03 05:25:39;;;;;;;17.95;9.25;;;10.40;99.90;;;;;;5007063;28;20045;-79
2023/12/03 05:28:06;;;;;;;14.95;9.98;;;10.80;99.90;;;;;;5005629;28;20037;-77
2023/12/03 05:30:34;;;;;;;17.00;9.18;;;10.60;99.90;;;;;;5011676;28;20444;-77
2023/12/03 05:33:01;;;;;;;18.55;8.05;;;10.50;99.90;;;;;;5019463;28;20038;-78
2023/12/03 05:35:29;;;;;;;13.57;7.97;;;10.70;99.90;;;;;;5008656;28;20038;-76
2023/12/03 05:37:56;;;;;;;18.80;8.27;;;10.70;99.90;;;;;;5009955;28;20385;-74
2023/12/03 05:40:24;;;;;;;23.08;9.30;;;10.80;99.90;;;;;;5015869;28;20061;-77
2023/12/03 05:42:52;;;;;;;18.90;8.63;;;10.90;99.90;;;;;;5015569;28;20038;-76
2023/12/03 05:45:19;;;;;;;18.55;9.25;;;10.90;99.90;;;;;;5016548;28;20071;-73
2023/12/03 05:47:47;;;;;;;15.80;9.02;;;10.90;99.90;;;;;;5010617;28;20037;-74
2023/12/03 05:50:14;;;;;;;17.80;10.35;;;11.00;99.90;;;;;;5011190;28;20041;-74
2023/12/03 05:52:41;;;;;;;16.65;8.93;;;11.10;99.90;;;;;;5002392;28;20121;-74
2023/12/03 05:55:09;;;;;;;17.90;8.80;;;11.10;99.90;;;;;;5009006;28;20037;-73
2023/12/03 05:57:36;;;;;;;19.52;9.15;;;11.20;99.90;;;;;;5004603;28;20389;-72
2023/12/03 06:00:04;;;;;;;15.93;8.45;;;11.20;99.90;;;;;;5006778;28;20034;-73
2023/12/03 06:02:34;;;;;;;15.00;7.97;;;11.20;99.90;;;;;;5006794;28;20705;-73
2023/12/03 06:05:02;;;;;;;18.83;9.63;;;11.00;99.90;;;;;;5006225;28;20073;-73
2023/12/03 06:07:30;;;;;;;14.85;8.30;;;11.10;99.90;;;;;;5006695;28;20697;-72
2023/12/03 06:09:57;;;;;;;16.08;8.13;;;11.10;99.90;;;;;;5006201;28;20485;-73
2023/12/03 06:12:25;;;;;;;23.33;9.77;;;11.20;99.90;;;;;;4989719;28;20112;-73
2023/12/03 06:14:52;;;;;;;19.48;9.07;;;11.20;99.90;;;;;;5005612;28;20052;-74
2023/12/03 06:17:19;;;;;;;16.15;8.80;;;11.30;99.90;;;;;;5007890;28;20038;-76
2023/12/03 06:19:46;;;;;;;20.85;10.38;;;11.20;99.90;;;;;;5006957;28;20062;-76
2023/12/03 06:22:14;;;;;;;18.80;10.75;;;11.20;99.90;;;;;;5005559;28;20041;-74
2023/12/03 06:24:41;;;;;;;22.20;10.07;;;11.10;99.90;;;;;;5005948;28;20386;-76
2023/12/03 06:27:08;;;;;;;23.38;11.57;;;11.00;99.90;;;;;;5004812;28;20088;-74
2023/12/03 06:29:36;;;;;;;17.13;9.68;;;10.90;99.90;;;;;;5006979;28;20088;-77
2023/12/03 06:32:03;;;;;;;16.10;10.00;;;11.00;99.90;;;;;;5006665;28;20040;-75
2023/12/03 06:34:30;;;;;;;18.88;9.82;;;11.20;99.90;;;;;;5008659;28;20049;-74
2023/12/03 06:36:59;;;;;;;14.65;9.48;;;11.40;99.90;;;;;;5004813;28;20042;-76
2023/12/03 06:39:27;;;;;;;17.92;9.20;;;11.10;99.90;;;;;;5006715;28;20045;-75
2023/12/03 06:41:55;;;;;;;18.17;10.02;;;11.00;99.90;;;;;;5002987;28;20034;-74
2023/12/03 06:44:22;;;;;;;19.38;9.60;;;11.00;99.90;;;;;;5007649;28;20050;-74
2023/12/03 06:47:05;;;;;;;17.73;8.85;;;11.00;99.90;;;;;;5004286;28;20120;-76
2023/12/03 06:49:32;;;;;;;22.92;12.20;;;11.10;99.90;;;;;;4988926;28;20057;-73
2023/12/03 06:52:00;;;;;;;23.25;10.85;;;11.30;99.90;;;;;;5007110;28;20116;-74
2023/12/03 06:54:28;;;;;;;15.93;9.95;;;11.10;99.90;;;;;;5008211;28;20718;-75
2023/12/03 06:56:55;;;;;;;17.58;9.52;;;11.10;99.90;;;;;;5008977;28;20034;-75
2023/12/03 06:59:23;;;;;;;16.98;8.82;;;10.90;99.90;;;;;;5005334;28;20138;-75
2023/12/03 07:01:50;;;;;;;18.48;10.25;;;11.00;99.90;;;;;;5010335;28;20064;-74
2023/12/03 07:04:17;;;;;;;16.15;9.65;;;11.10;99.90;;;;;;5009105;28;20537;-75
2023/12/03 07:06:45;;;;;;;23.13;9.07;;;11.20;99.90;;;;;;5001563;28;20038;-74
2023/12/03 07:09:14;;;;;;;14.60;9.15;;;11.30;99.90;;;;;;5005834;28;20034;-77
2023/12/03 07:12:01;;;;;;;16.48;9.15;;;11.40;99.90;;;;;;5004915;28;20109;-79
2023/12/03 07:14:28;;;;;;;16.10;8.80;;;11.30;99.90;;;;;;5005955;28;20050;-79
2023/12/03 07:16:56;;;;;;;21.55;9.77;;;11.40;99.90;;;;;;5008777;28;20382;-78
2023/12/03 07:19:24;;;;;;;14.00;9.23;;;11.50;99.90;;;;;;5002469;28;20034;-79
2023/12/03 07:21:51;;;;;;;20.38;9.05;;;11.50;99.90;;;;;;5006100;28;20030;-78
2023/12/03 07:24:18;;;;;;;19.98;9.43;;;11.60;99.90;;;;;;5006065;28;20038;-77
2023/12/03 07:26:46;;;;;;;17.38;9.35;;;11.60;99.90;;;;;;5006525;28;20433;-79
2023/12/03 07:29:13;;;;;;;14.65;8.95;;;11.60;99.90;;;;;;5008755;28;20424;-79
2023/12/03 07:31:40;;;;;;;16.17;9.23;;;11.50;99.90;;;;;;5008342;28;20045;-76
2023/12/03 07:34:08;;;;;;;20.15;9.23;;;11.50;99.90;;;;;;5004957;28;20034;-73
2023/12/03 07:36:35;;;;;;;16.15;8.82;;;11.60;99.90;;;;;;5012845;28;20359;-75
2023/12/03 07:39:03;;;;;;;15.68;8.63;;;11.60;99.90;;;;;;4995742;28;20053;-77
2023/12/03 07:41:31;;;;;;;17.02;9.00;;;11.70;99.90;;;;;;5009461;28;20041;-76
2023/12/03 07:43:58;;;;;;;16.98;8.90;;;11.70;99.90;;;;;;5009247;28;20064;-73
2023/12/03 07:46:27;;;;;;;17.40;8.70;;;11.80;99.90;;;;;;5011507;28;20048;-77
2023/12/03 07:48:54;;;;;;;22.08;8.98;;;11.80;99.90;;;;;;5007379;28;20096;-77
2023/12/03 07:51:22;;;;;;;20.50;8.93;;;11.80;99.90;;;;;;5009065;28;20038;-78
2023/12/03 07:53:49;;;;;;;19.52;8.52;;;11.80;99.90;;;;;;5009195;28;20179;-76
2023/12/03 07:56:16;;;;;;;19.45;10.05;;;11.70;99.90;;;;;;5009600;28;20044;-76
2023/12/03 07:58:44;;;;;;;22.20;9.48;;;11.70;99.90;;;;;;5010347;28;20038;-77
2023/12/03 08:01:11;;;;;;;15.98;8.77;;;11.60;99.90;;;;;;4998576;28;20088;-76
2023/12/03 08:03:38;;;;;;;15.88;9.38;;;11.70;99.90;;;;;;5011299;28;20109;-77
2023/12/03 08:06:06;;;;;;;20.63;9.98;;;11.50;99.90;;;;;;5007894;28;20041;-79
2023/12/03 08:08:33;;;;;;;21.27;8.43;;;11.70;99.90;;;;;;5007879;28;20052;-77
2023/12/03 08:11:01;;;;;;;18.52;10.15;;;11.80;99.90;;;;;;5009983;28;20056;-76
2023/12/03 08:13:29;;;;;;;17.25;8.40;;;11.90;99.90;;;;;;5002813;28;20034;-78
2023/12/03 08:15:56;;;;;;;19.17;10.02;;;12.00;99.90;;;;;;5002433;28;20073;-77
2023/12/03 08:18:24;;;;;;;23.92;13.10;;;12.00;99.90;;;;;;5008425;28;20083;-77
2023/12/03 08:20:51;;;;;;;22.08;10.25;;;12.00;99.90;;;;;;5006781;28;20027;-76
2023/12/03 08:23:18;;;;;;;24.42;10.68;;;12.10;99.90;;;;;;5010819;28;20521;-77
2023/12/03 08:25:46;;;;;;;28.88;13.57;;;12.20;99.90;;;;;;5009047;28;20042;-78
2023/12/03 08:28:15;;;;;;;26.63;12.13;;;12.10;99.90;;;;;;5008786;28;20030;-76
2023/12/03 08:30:43;;;;;;;27.13;13.85;;;12.20;99.90;;;;;;5007125;28;20112;-80
2023/12/03 08:33:11;;;;;;;31.63;13.98;;;12.20;99.90;;;;;;5012112;28;20045;-78
2023/12/03 08:35:38;;;;;;;24.55;13.07;;;12.20;99.90;;;;;;4992318;28;20138;-79
2023/12/03 08:38:05;;;;;;;30.52;14.05;;;12.30;99.90;;;;;;5011276;28;20040;-77
2023/12/03 08:40:33;;;;;;;25.40;14.85;;;12.20;99.90;;;;;;4994954;28;20038;-78
2023/12/03 08:43:00;;;;;;;28.52;15.20;;;12.00;99.90;;;;;;5008608;28;20120;-80
2023/12/03 08:45:29;;;;;;;26.42;13.60;;;12.00;99.90;;;;;;5007258;28;20046;-78
2023/12/03 08:48:03;;;;;;;21.45;12.88;;;12.00;99.90;;;;;;5009217;28;20040;-76
2023/12/03 08:50:31;;;;;;;21.15;12.10;;;12.10;99.90;;;;;;4994075;28;20113;-76
2023/12/03 08:52:59;;;;;;;19.15;12.00;;;12.10;99.90;;;;;;5011651;28;20100;-77
2023/12/03 08:55:26;;;;;;;18.80;10.60;;;12.10;99.90;;;;;;5010995;28;20078;-77
2023/12/03 08:57:55;;;;;;;40.53;23.35;;;12.20;99.90;;;;;;5006751;28;20065;-77
2023/12/03 09:00:23;;;;;;;34.75;18.77;;;12.40;99.90;;;;;;5008744;28;20272;-76
2023/12/03 09:02:50;;;;;;;46.88;27.85;;;12.40;99.90;;;;;;4986615;28;20821;-78
2023/12/03 09:05:18;;;;;;;94.80;55.53;;;12.50;99.90;;;;;;4969167;28;20481;-80
2023/12/03 09:07:50;;;;;;;14.10;11.35;;;12.50;99.90;;;;;;5012180;28;20425;-75
2023/12/03 09:10:20;;;;;;;13.88;7.40;;;12.30;99.90;;;;;;5011165;28;20041;-77
2023/12/03 09:12:47;;;;;;;11.93;7.85;;;12.10;99.90;;;;;;5011881;28;20544;-75
2023/12/03 09:15:15;;;;;;;24.92;15.25;;;12.00;99.90;;;;;;5012460;28;20037;-83
2023/12/03 09:17:43;;;;;;;14.90;9.15;;;11.90;99.90;;;;;;4996272;28;20133;-83
2023/12/03 09:20:11;;;;;;;11.43;7.95;;;11.80;99.90;;;;;;5012694;28;20128;-80
2023/12/03 09:22:38;;;;;;;10.35;6.65;;;12.10;99.90;;;;;;4994310;28;20437;-76
2023/12/03 09:25:06;;;;;;;8.88;6.95;;;11.90;99.90;;;;;;5009107;28;20034;-77
2023/12/03 09:27:34;;;;;;;12.45;7.57;;;11.70;99.90;;;;;;5011076;28;20050;-76
2023/12/03 09:30:04;;;;;;;12.20;7.38;;;11.60;99.90;;;;;;4990733;28;20477;-75
2023/12/03 09:32:32;;;;;;;11.48;7.35;;;11.70;99.90;;;;;;5011291;28;20117;-77
2023/12/03 09:34:59;;;;;;;12.43;7.43;;;11.60;99.90;;;;;;5011721;28;20061;-76
2023/12/03 09:37:26;;;;;;;12.73;7.15;;;11.70;99.90;;;;;;5010662;28;20038;-76
2023/12/03 09:39:55;;;;;;;11.00;7.97;;;11.70;99.90;;;;;;5011729;28;20041;-74
2023/12/03 09:42:26;;;;;;;10.02;7.07;;;11.70;99.90;;;;;;5010351;28;20038;-74
2023/12/03 09:45:01;;;;;;;13.32;8.00;;;11.60;99.90;;;;;;5010919;28;20124;-74
2023/12/03 09:47:34;;;;;;;12.63;7.43;;;11.60;99.90;;;;;;5011174;28;20120;-77
2023/12/03 09:50:04;;;;;;;12.93;7.70;;;11.50;99.90;;;;;;5004780;28;20038;-79
2023/12/03 09:52:36;;;;;;;11.30;8.05;;;11.50;99.90;;;;;;5011353;28;20038;-77
2023/12/03 09:55:05;;;;;;;12.27;7.30;;;11.50;99.90;;;;;;5010564;28;20037;-77
2023/12/03 09:57:34;;;;;;;11.35;7.68;;;11.60;99.90;;;;;;5009210;28;20048;-76
2023/12/03 10:00:07;;;;;;;10.77;7.32;;;11.50;99.90;;;;;;4993317;28;20038;-76
2023/12/03 10:02:35;;;;;;;12.43;7.57;;;11.50;99.90;;;;;;5010917;28;20121;-76
2023/12/03 10:05:03;;;;;;;12.13;7.35;;;11.60;99.40;;;;;;5011833;28;20033;-80
2023/12/03 10:07:30;;;;;;;11.05;7.88;;;11.60;99.40;;;;;;5009726;28;20069;-74
2023/12/03 10:09:59;;;;;;;10.88;7.72;;;11.40;99.60;;;;;;4992892;28;20073;-76
2023/12/03 10:12:40;;;;;;;9.77;6.78;;;11.50;99.50;;;;;;5011356;28;20081;-80
2023/12/03 10:15:12;;;;;;;10.80;7.15;;;11.40;99.30;;;;;;5006701;28;20034;-76
2023/12/03 10:17:40;;;;;;;11.60;9.77;;;11.40;99.20;;;;;;5008388;28;20093;-83
2023/12/03 10:20:21;;;;;;;43.40;27.85;;;11.40;99.40;;;;;;5011792;28;20061;-78
2023/12/03 10:22:54;;;;;;;47.83;30.00;;;11.50;99.50;;;;;;5010221;28;20188;-76
2023/12/03 10:25:31;;;;;;;12.57;10.27;;;11.70;99.30;;;;;;4995703;28;20445;-75
2023/12/03 10:28:04;;;;;;;16.40;9.13;;;11.40;98.60;;;;;;5007896;28;20025;-76
2023/12/03 10:30:33;;;;;;;11.20;8.02;;;11.20;98.60;;;;;;5010672;28;20069;-78
2023/12/03 10:33:00;;;;;;;11.80;8.18;;;11.10;98.80;;;;;;5009926;28;20058;-78
2023/12/03 10:35:35;;;;;;;12.95;9.18;;;10.90;98.90;;;;;;5008187;28;20053;-76
2023/12/03 10:38:09;;;;;;;12.95;9.20;;;10.90;98.90;;;;;;5006739;28;20042;-76
2023/12/03 10:40:37;;;;;;;11.25;8.57;;;10.60;99.30;;;;;;5009987;28;20042;-77
2023/12/03 10:43:05;;;;;;;15.63;9.55;;;10.90;99.20;;;;;;5009942;28;20084;-76
2023/12/03 10:45:33;;;;;;;11.93;8.05;;;10.50;99.20;;;;;;5010172;28;20489;-76
2023/12/03 10:48:01;;;;;;;11.32;8.60;;;10.40;99.30;;;;;;5008587;28;20041;-75
2023/12/03 10:50:29;;;;;;;15.20;8.98;;;10.50;99.30;;;;;;4974629;28;20076;-74
2023/12/03 10:52:59;;;;;;;11.85;8.52;;;10.60;98.80;;;;;;5006550;28;20044;-76
2023/12/03 10:55:28;;;;;;;11.82;9.07;;;10.60;99.00;;;;;;5004870;28;20389;-75
2023/12/03 10:58:06;;;;;;;11.80;8.82;;;10.50;99.30;;;;;;5008041;28;20038;-78
2023/12/03 11:00:38;;;;;;;12.90;9.13;;;10.50;98.70;;;;;;5003747;28;20041;-75
2023/12/03 11:03:06;;;;;;;11.63;8.90;;;10.30;98.80;;;;;;5006302;28;20143;-76
2023/12/03 11:05:53;;;;;;;12.63;9.43;;;10.50;98.90;;;;;;5007461;28;20046;-78
2023/12/03 11:08:22;;;;;;;11.73;8.80;;;10.50;98.70;;;;;;5008132;28;20052;-77
2023/12/03 11:10:54;;;;;;;15.80;10.30;;;10.40;98.40;;;;;;4993394;28;20478;-74
2023/12/03 11:13:22;;;;;;;14.88;9.40;;;10.30;98.50;;;;;;5010638;28;20297;-74
2023/12/03 11:16:04;;;;;;;15.32;8.85;;;10.30;98.60;;;;;;5010993;28;20033;-75
2023/12/03 11:18:34;;;;;;;13.13;9.38;;;10.40;98.30;;;;;;5013672;28;20034;-75
2023/12/03 11:21:27;;;;;;;13.38;8.90;;;10.50;98.20;;;;;;5012028;28;20065;-75
2023/12/03 11:24:21;;;;;;;11.77;9.10;;;10.30;98.40;;;;;;5013758;28;20138;-79
2023/12/03 11:26:48;;;;;;;13.73;9.27;;;10.40;98.10;;;;;;5012117;28;20038;-75
2023/12/03 11:29:15;;;;;;;14.00;9.27;;;10.30;98.20;;;;;;5013141;28;20062;-76
2023/12/03 11:31:43;;;;;;;12.57;8.93;;;10.60;97.90;;;;;;5016422;28;20429;-76
2023/12/03 11:34:12;;;;;;;14.63;9.10;;;10.50;97.80;;;;;;5013191;28;20041;-78
2023/12/03 11:36:52;;;;;;;12.93;9.32;;;10.70;97.40;;;;;;4995256;28;20058;-75
2023/12/03 11:39:26;;;;;;;13.70;9.15;;;10.60;97.50;;;;;;5013900;28;20100;-79
2023/12/03 11:42:00;;;;;;;13.65;8.93;;;10.60;97.40;;;;;;5012866;28;20034;-79
2023/12/03 11:44:28;;;;;;;13.20;9.65;;;10.60;97.60;;;;;;5008798;28;20058;-77
2023/12/03 11:47:06;;;;;;;15.25;8.88;;;10.60;97.30;;;;;;4993870;28;20096;-78
2023/12/03 11:49:35;;;;;;;12.07;9.10;;;10.80;97.40;;;;;;5007680;28;20042;-78
2023/12/03 11:52:04;;;;;;;12.25;8.35;;;10.50;97.10;;;;;;5011329;28;20030;-78
2023/12/03 11:54:58;;;;;;;15.07;8.70;;;10.40;97.50;;;;;;5012129;28;20385;-76
2023/12/03 11:57:26;;;;;;;15.15;9.40;;;10.20;97.60;;;;;;5012395;28;20474;-81
2023/12/03 11:59:54;;;;;;;14.40;8.77;;;10.20;97.60;;;;;;5011515;28;20432;-78
2023/12/03 12:02:21;;;;;;;24.70;16.83;;;10.10;97.90;;;;;;5018088;28;20786;-85
2023/12/03 12:04:53;;;;;;;;;;;10.40;99.50;;;;;;5003943;28;20075;-88
2023/12/03 12:07:20;;;;;;;17.80;11.00;;;10.80;98.30;;;;;;5019702;28;19929;-78
2023/12/03 12:09:48;;;;;;;9.88;7.97;;;10.70;96.90;;;;;;5011713;28;20049;-77
2023/12/03 12:12:16;;;;;;;12.43;8.52;;;10.40;96.80;;;;;;5012581;28;20030;-78
2023/12/03 12:14:47;;;;;;;12.55;8.30;;;10.30;96.80;;;;;;5012803;28;20088;-76
2023/12/03 12:17:14;;;;;;;;;;;10.20;96.90;;;;;;5011380;28;20029;-77
2023/12/03 12:19:49;;;;;;;13.30;9.18;;;9.80;97.20;;;;;;5010764;28;19917;-79
2023/12/03 12:22:17;;;;;;;70.60;37.28;;;9.70;97.80;;;;;;5020553;28;20050;-83
2023/12/03 12:24:45;;;;;;;61.28;32.17;;;10.20;97.90;;;;;;5014629;28;20049;-80
2023/12/03 12:27:15;;;;;;;21.98;16.15;;;10.80;96.90;;;;;;5015884;28;20034;-81
2023/12/03 12:29:49;;;;;;;40.67;24.42;;;10.70;96.40;;;;;;4986959;28;20034;-78
2023/12/03 12:32:42;;;;;;;14.70;10.02;;;10.50;96.50;;;;;;5014328;28;20030;-82
2023/12/03 12:35:12;;;;;;;13.85;8.63;;;10.30;96.10;;;;;;5014458;28;20049;-83
2023/12/03 12:37:39;;;;;;;13.07;8.48;;;10.10;95.80;;;;;;5015027;28;20088;-80
2023/12/03 12:40:11;;;;;;;13.88;8.07;;;10.20;96.10;;;;;;5011821;28;20034;-80